sensor_id;sensor_type;location;lat;lon;timestamp;pressure;altitude;pressure_sealevel;temperature;humidity
21520;BME280;10921;53.614;9.882;2023-02-28T00:00:52;102976.47;;;6.13;58.25
21520;BME280;10921;53.614;9.882;2023-02-28T00:03:18;102960.03;;;6.05;58.49
21520;BME280;10921;53.614;9.882;2023-02-28T00:05:45;102971.31;;;6.10;59.17
21520;BME280;10921;53.614;9.882;2023-02-28T00:08:11;102967.91;;;6.06;58.82
21520;BME280;10921;53.614;9.882;2023-02-28T00:10:39;102967.16;;;6.03;58.17
21520;BME280;10921;53.614;9.882;2023-02-28T00:13:06;102954.34;;;5.92;57.89
21520;BME280;10921;53.614;9.882;2023-02-28T00:15:33;102978.75;;;6.00;57.77
21520;BME280;10921;53.614;9.882;2023-02-28T00:18:00;102972.03;;;5.91;57.46
21520;BME280;10921;53.614;9.882;2023-02-28T00:20:26;102940.00;;;5.74;57.82
21520;BME280;10921;53.614;9.882;2023-02-28T00:22:53;102983.50;;;5.92;57.81
21520;BME280;10921;53.614;9.882;2023-02-28T00:25:22;102981.81;;;5.89;58.36
21520;BME280;10921;53.614;9.882;2023-02-28T00:27:49;102980.19;;;5.85;58.14
21520;BME280;10921;53.614;9.882;2023-02-28T00:30:18;102986.50;;;5.81;58.13
21520;BME280;10921;53.614;9.882;2023-02-28T00:32:45;102946.84;;;5.56;58.53
21520;BME280;10921;53.614;9.882;2023-02-28T00:35:12;102978.13;;;5.70;58.18
21520;BME280;10921;53.614;9.882;2023-02-28T00:37:38;102981.72;;;5.68;58.68
21520;BME280;10921;53.614;9.882;2023-02-28T00:40:06;102983.53;;;5.67;58.33
21520;BME280;10921;53.614;9.882;2023-02-28T00:42:36;102975.72;;;5.64;58.35
21520;BME280;10921;53.614;9.882;2023-02-28T00:45:03;102978.47;;;5.61;57.67
21520;BME280;10921;53.614;9.882;2023-02-28T00:47:34;102968.84;;;5.58;58.74
21520;BME280;10921;53.614;9.882;2023-02-28T00:50:01;102979.44;;;5.58;58.49
21520;BME280;10921;53.614;9.882;2023-02-28T00:52:28;102991.81;;;5.58;57.94
21520;BME280;10921;53.614;9.882;2023-02-28T00:54:54;102968.72;;;5.38;58.17
21520;BME280;10921;53.614;9.882;2023-02-28T00:57:21;102998.25;;;5.51;57.86
21520;BME280;10921;53.614;9.882;2023-02-28T00:59:48;102966.41;;;5.29;58.22
21520;BME280;10921;53.614;9.882;2023-02-28T01:02:15;102940.41;;;5.17;58.17
21520;BME280;10921;53.614;9.882;2023-02-28T01:04:41;102986.28;;;5.41;58.26
21520;BME280;10921;53.614;9.882;2023-02-28T01:07:08;102982.81;;;5.39;58.22
21520;BME280;10921;53.614;9.882;2023-02-28T01:09:35;102990.00;;;5.35;58.40
21520;BME280;10921;53.614;9.882;2023-02-28T01:12:01;102978.91;;;5.25;58.31
21520;BME280;10921;53.614;9.882;2023-02-28T01:14:28;102958.22;;;5.12;58.34
21520;BME280;10921;53.614;9.882;2023-02-28T01:16:54;102989.50;;;5.25;58.56
21520;BME280;10921;53.614;9.882;2023-02-28T01:19:21;102969.94;;;5.05;59.64
21520;BME280;10921;53.614;9.882;2023-02-28T01:21:47;102984.53;;;5.16;60.24
21520;BME280;10921;53.614;9.882;2023-02-28T01:24:14;102983.72;;;5.14;60.38
21520;BME280;10921;53.614;9.882;2023-02-28T01:26:40;102971.72;;;5.04;60.56
21520;BME280;10921;53.614;9.882;2023-02-28T01:29:07;102993.59;;;5.09;60.26
21520;BME280;10921;53.614;9.882;2023-02-28T01:31:34;102984.94;;;5.04;60.53
21520;BME280;10921;53.614;9.882;2023-02-28T01:34:01;102967.66;;;4.94;61.34
21520;BME280;10921;53.614;9.882;2023-02-28T01:36:27;102984.88;;;5.06;61.43
21520;BME280;10921;53.614;9.882;2023-02-28T01:38:54;102973.78;;;4.96;61.33
21520;BME280;10921;53.614;9.882;2023-02-28T01:41:26;102946.19;;;4.78;61.50
21520;BME280;10921;53.614;9.882;2023-02-28T01:43:59;102990.22;;;5.04;61.88
21520;BME280;10921;53.614;9.882;2023-02-28T01:46:34;103001.69;;;5.05;62.12
21520;BME280;10921;53.614;9.882;2023-02-28T01:49:16;102984.25;;;4.99;61.66
21520;BME280;10921;53.614;9.882;2023-02-28T01:51:46;102978.91;;;5.01;61.84
21520;BME280;10921;53.614;9.882;2023-02-28T01:54:21;102979.88;;;4.98;62.02
21520;BME280;10921;53.614;9.882;2023-02-28T01:57:09;102991.28;;;5.00;62.12
21520;BME280;10921;53.614;9.882;2023-02-28T01:59:48;102990.53;;;4.97;61.52
21520;BME280;10921;53.614;9.882;2023-02-28T02:02:18;102975.72;;;4.91;61.28
21520;BME280;10921;53.614;9.882;2023-02-28T02:04:51;102989.69;;;4.94;61.80
21520;BME280;10921;53.614;9.882;2023-02-28T02:07:20;102983.66;;;4.91;61.83
21520;BME280;10921;53.614;9.882;2023-02-28T02:09:46;102981.75;;;4.94;62.33
21520;BME280;10921;53.614;9.882;2023-02-28T02:15:12;102979.94;;;4.97;62.10
21520;BME280;10921;53.614;9.882;2023-02-28T02:17:46;102982.59;;;4.97;62.81
21520;BME280;10921;53.614;9.882;2023-02-28T02:29:03;102973.38;;;5.07;62.72
21520;BME280;10921;53.614;9.882;2023-02-28T02:34:56;102977.66;;;5.11;62.63
21520;BME280;10921;53.614;9.882;2023-02-28T02:45:31;102968.91;;;5.09;63.05
21520;BME280;10921;53.614;9.882;2023-02-28T02:48:05;102916.44;;;4.72;62.30
21520;BME280;10921;53.614;9.882;2023-02-28T02:50:41;102972.16;;;5.17;62.22
21520;BME280;10921;53.614;9.882;2023-02-28T02:53:10;102959.28;;;5.06;61.98
21520;BME280;10921;53.614;9.882;2023-02-28T02:55:41;102964.72;;;5.03;62.08
21520;BME280;10921;53.614;9.882;2023-02-28T02:58:13;102959.69;;;4.95;62.03
21520;BME280;10921;53.614;9.882;2023-02-28T03:00:43;102958.91;;;4.92;62.43
21520;BME280;10921;53.614;9.882;2023-02-28T03:03:13;102961.78;;;4.86;62.39
21520;BME280;10921;53.614;9.882;2023-02-28T03:05:50;102963.16;;;4.73;63.08
21520;BME280;10921;53.614;9.882;2023-02-28T03:08:17;102968.47;;;4.71;62.76
21520;BME280;10921;53.614;9.882;2023-02-28T03:10:46;102960.78;;;4.64;63.03
21520;BME280;10921;53.614;9.882;2023-02-28T03:16:33;102973.66;;;4.48;63.58
21520;BME280;10921;53.614;9.882;2023-02-28T03:27:13;102974.94;;;4.08;64.18
21520;BME280;10921;53.614;9.882;2023-02-28T03:29:47;102976.03;;;4.01;64.80
21520;BME280;10921;53.614;9.882;2023-02-28T03:32:23;102959.19;;;3.77;64.75
21520;BME280;10921;53.614;9.882;2023-02-28T03:37:42;102983.66;;;3.82;65.21
21520;BME280;10921;53.614;9.882;2023-02-28T03:40:16;102968.97;;;3.74;65.88
21520;BME280;10921;53.614;9.882;2023-02-28T03:42:55;102985.59;;;3.77;65.88
21520;BME280;10921;53.614;9.882;2023-02-28T03:45:28;102991.81;;;3.75;65.53
21520;BME280;10921;53.614;9.882;2023-02-28T03:48:16;102982.16;;;3.74;65.67
21520;BME280;10921;53.614;9.882;2023-02-28T03:50:47;102989.38;;;3.67;65.31
21520;BME280;10921;53.614;9.882;2023-02-28T03:53:27;102967.75;;;3.54;65.13
21520;BME280;10921;53.614;9.882;2023-02-28T03:56:06;102987.94;;;3.57;65.92
21520;BME280;10921;53.614;9.882;2023-02-28T03:58:58;102983.75;;;3.50;65.40
21520;BME280;10921;53.614;9.882;2023-02-28T04:01:35;102985.78;;;3.40;65.58
21520;BME280;10921;53.614;9.882;2023-02-28T04:04:03;102983.53;;;3.27;65.53
21520;BME280;10921;53.614;9.882;2023-02-28T04:06:31;102992.44;;;3.23;65.20
21520;BME280;10921;53.614;9.882;2023-02-28T04:08:58;102966.72;;;2.98;65.57
21520;BME280;10921;53.614;9.882;2023-02-28T04:11:37;102993.84;;;3.03;66.16
21520;BME280;10921;53.614;9.882;2023-02-28T04:14:06;102991.50;;;2.91;66.33
21520;BME280;10921;53.614;9.882;2023-02-28T04:16:35;102994.44;;;2.80;66.20
21520;BME280;10921;53.614;9.882;2023-02-28T04:19:04;102990.34;;;2.69;65.96
21520;BME280;10921;53.614;9.882;2023-02-28T04:21:40;102999.44;;;2.57;67.23
21520;BME280;10921;53.614;9.882;2023-02-28T04:24:08;102951.22;;;2.17;67.06
21520;BME280;10921;53.614;9.882;2023-02-28T04:26:42;102979.19;;;2.22;67.56
21520;BME280;10921;53.614;9.882;2023-02-28T04:29:12;102975.03;;;2.14;67.56
21520;BME280;10921;53.614;9.882;2023-02-28T04:31:38;102996.03;;;2.15;67.79
21520;BME280;10921;53.614;9.882;2023-02-28T04:34:05;102970.31;;;1.89;68.56
21520;BME280;10921;53.614;9.882;2023-02-28T04:36:32;102993.00;;;1.95;68.79
21520;BME280;10921;53.614;9.882;2023-02-28T04:38:58;102999.22;;;1.91;69.26
21520;BME280;10921;53.614;9.882;2023-02-28T04:41:26;102996.72;;;1.85;69.54
21520;BME280;10921;53.614;9.882;2023-02-28T04:43:56;103003.88;;;1.80;69.76
21520;BME280;10921;53.614;9.882;2023-02-28T04:46:23;102994.38;;;1.71;69.90
21520;BME280;10921;53.614;9.882;2023-02-28T04:48:50;102972.75;;;1.57;69.58
21520;BME280;10921;53.614;9.882;2023-02-28T04:51:17;102997.28;;;1.59;69.92
21520;BME280;10921;53.614;9.882;2023-02-28T04:53:45;102993.97;;;1.49;70.02
21520;BME280;10921;53.614;9.882;2023-02-28T04:56:14;103003.53;;;1.53;70.76
21520;BME280;10921;53.614;9.882;2023-02-28T04:58:42;102982.88;;;1.35;70.03
21520;BME280;10921;53.614;9.882;2023-02-28T05:01:26;103000.31;;;1.39;70.96
21520;BME280;10921;53.614;9.882;2023-02-28T05:03:56;102954.59;;;1.01;71.05
21520;BME280;10921;53.614;9.882;2023-02-28T05:06:24;103005.94;;;1.21;71.27
21520;BME280;10921;53.614;9.882;2023-02-28T05:08:52;102956.72;;;0.81;71.21
21520;BME280;10921;53.614;9.882;2023-02-28T05:13:47;102962.19;;;0.69;71.57
21520;BME280;10921;53.614;9.882;2023-02-28T05:16:14;103018.81;;;0.88;71.85
21520;BME280;10921;53.614;9.882;2023-02-28T05:18:41;102951.97;;;0.52;72.27
21520;BME280;10921;53.614;9.882;2023-02-28T05:21:36;103004.13;;;0.75;73.45
21520;BME280;10921;53.614;9.882;2023-02-28T05:24:06;102968.75;;;0.45;73.06
21520;BME280;10921;53.614;9.882;2023-02-28T05:26:35;103003.56;;;0.58;72.74
21520;BME280;10921;53.614;9.882;2023-02-28T05:29:02;102988.94;;;0.40;72.88
21520;BME280;10921;53.614;9.882;2023-02-28T05:31:29;103013.41;;;0.44;73.07
21520;BME280;10921;53.614;9.882;2023-02-28T05:33:56;102975.28;;;0.17;73.28
21520;BME280;10921;53.614;9.882;2023-02-28T05:36:23;103018.81;;;0.33;73.30
21520;BME280;10921;53.614;9.882;2023-02-28T05:38:50;103025.09;;;0.24;73.49
21520;BME280;10921;53.614;9.882;2023-02-28T05:41:18;103021.59;;;0.22;74.16
21520;BME280;10921;53.614;9.882;2023-02-28T05:43:46;103019.09;;;0.15;74.00
21520;BME280;10921;53.614;9.882;2023-02-28T05:46:13;102966.25;;;-0.24;74.46
21520;BME280;10921;53.614;9.882;2023-02-28T05:48:41;103029.72;;;0.04;74.82
21520;BME280;10921;53.614;9.882;2023-02-28T05:51:08;103025.44;;;0.00;75.08
21520;BME280;10921;53.614;9.882;2023-02-28T05:53:35;103028.13;;;-0.05;75.23
21520;BME280;10921;53.614;9.882;2023-02-28T05:56:02;102990.91;;;-0.34;75.29
21520;BME280;10921;53.614;9.882;2023-02-28T05:58:29;102983.09;;;-0.42;75.41
21520;BME280;10921;53.614;9.882;2023-02-28T06:00:58;103030.94;;;-0.20;75.95
21520;BME280;10921;53.614;9.882;2023-02-28T06:03:26;103034.47;;;-0.24;76.29
21520;BME280;10921;53.614;9.882;2023-02-28T06:05:53;103040.63;;;-0.26;76.32
21520;BME280;10921;53.614;9.882;2023-02-28T06:08:19;103030.22;;;-0.32;76.79
21520;BME280;10921;53.614;9.882;2023-02-28T06:10:46;103030.25;;;-0.34;76.61
21520;BME280;10921;53.614;9.882;2023-02-28T06:13:12;103034.59;;;-0.31;77.36
21520;BME280;10921;53.614;9.882;2023-02-28T06:15:39;103036.34;;;-0.32;77.24
21520;BME280;10921;53.614;9.882;2023-02-28T06:18:06;103041.59;;;-0.32;77.59
21520;BME280;10921;53.614;9.882;2023-02-28T06:20:33;103022.44;;;-0.42;77.71
21520;BME280;10921;53.614;9.882;2023-02-28T06:23:00;103036.31;;;-0.30;77.76
21520;BME280;10921;53.614;9.882;2023-02-28T06:25:27;103045.09;;;-0.31;77.82
21520;BME280;10921;53.614;9.882;2023-02-28T06:27:54;103044.25;;;-0.35;78.08
21520;BME280;10921;53.614;9.882;2023-02-28T06:30:21;103032.91;;;-0.39;77.98
21520;BME280;10921;53.614;9.882;2023-02-28T06:32:51;103042.47;;;-0.31;78.07
21520;BME280;10921;53.614;9.882;2023-02-28T06:35:18;103034.69;;;-0.41;78.14
21520;BME280;10921;53.614;9.882;2023-02-28T06:37:44;103006.06;;;-0.60;78.33
21520;BME280;10921;53.614;9.882;2023-02-28T06:40:11;103052.97;;;-0.33;78.64
21520;BME280;10921;53.614;9.882;2023-02-28T06:42:39;103052.97;;;-0.31;78.47
21520;BME280;10921;53.614;9.882;2023-02-28T06:45:06;103045.16;;;-0.38;79.20
21520;BME280;10921;53.614;9.882;2023-02-28T06:47:37;103052.88;;;-0.27;79.58
21520;BME280;10921;53.614;9.882;2023-02-28T06:50:05;103049.34;;;-0.24;79.56
21520;BME280;10921;53.614;9.882;2023-02-28T06:52:32;102991.19;;;-0.58;79.37
21520;BME280;10921;53.614;9.882;2023-02-28T06:54:58;103051.97;;;-0.23;79.78
21520;BME280;10921;53.614;9.882;2023-02-28T06:57:29;103055.41;;;-0.18;80.03
21520;BME280;10921;53.614;9.882;2023-02-28T07:00:01;103059.78;;;-0.17;79.59
21520;BME280;10921;53.614;9.882;2023-02-28T07:02:28;103050.97;;;-0.14;79.71
21520;BME280;10921;53.614;9.882;2023-02-28T07:04:54;103055.41;;;-0.16;80.09
21520;BME280;10921;53.614;9.882;2023-02-28T07:07:21;102993.63;;;-0.45;80.13
21520;BME280;10921;53.614;9.882;2023-02-28T07:09:47;103024.84;;;-0.22;80.75
21520;BME280;10921;53.614;9.882;2023-02-28T07:12:14;103053.53;;;-0.08;80.89
21520;BME280;10921;53.614;9.882;2023-02-28T07:14:40;103063.00;;;0.02;81.49
21520;BME280;10921;53.614;9.882;2023-02-28T07:17:08;103071.69;;;0.07;81.62
21520;BME280;10921;53.614;9.882;2023-02-28T07:19:35;103055.97;;;0.04;81.83
21520;BME280;10921;53.614;9.882;2023-02-28T07:22:01;103069.78;;;0.20;82.35
21520;BME280;10921;53.614;9.882;2023-02-28T07:24:29;103061.88;;;0.21;82.41
21520;BME280;10921;53.614;9.882;2023-02-28T07:26:55;103075.69;;;0.35;82.89
21520;BME280;10921;53.614;9.882;2023-02-28T07:29:22;103071.19;;;0.44;82.95
21520;BME280;10921;53.614;9.882;2023-02-28T07:31:49;103074.56;;;0.53;82.73
21520;BME280;10921;53.614;9.882;2023-02-28T07:34:19;103069.06;;;0.67;82.89
21520;BME280;10921;53.614;9.882;2023-02-28T07:36:46;103066.41;;;0.70;82.67
21520;BME280;10921;53.614;9.882;2023-02-28T07:39:12;103066.25;;;0.79;83.55
21520;BME280;10921;53.614;9.882;2023-02-28T07:41:39;103053.91;;;0.84;83.71
21520;BME280;10921;53.614;9.882;2023-02-28T07:44:10;103066.66;;;1.07;83.93
21520;BME280;10921;53.614;9.882;2023-02-28T07:46:37;103046.44;;;1.11;84.00
21520;BME280;10921;53.614;9.882;2023-02-28T07:49:04;103058.38;;;1.28;83.59
21520;BME280;10921;53.614;9.882;2023-02-28T07:51:31;103066.88;;;1.44;83.47
21520;BME280;10921;53.614;9.882;2023-02-28T07:53:57;103069.19;;;1.61;82.56
21520;BME280;10921;53.614;9.882;2023-02-28T07:56:24;103032.56;;;1.50;81.67
21520;BME280;10921;53.614;9.882;2023-02-28T07:58:50;103076.47;;;1.90;80.76
21520;BME280;10921;53.614;9.882;2023-02-28T08:01:17;103072.75;;;2.00;79.35
21520;BME280;10921;53.614;9.882;2023-02-28T08:03:45;103074.13;;;2.18;78.88
21520;BME280;10921;53.614;9.882;2023-02-28T08:06:17;103076.44;;;2.31;77.97
21520;BME280;10921;53.614;9.882;2023-02-28T08:08:44;103031.88;;;2.22;77.00
21520;BME280;10921;53.614;9.882;2023-02-28T08:11:11;103045.44;;;2.44;76.48
21520;BME280;10921;53.614;9.882;2023-02-28T08:13:37;103073.81;;;2.70;75.43
21520;BME280;10921;53.614;9.882;2023-02-28T08:16:04;103081.31;;;2.87;74.28
21520;BME280;10921;53.614;9.882;2023-02-28T08:18:32;103066.22;;;2.92;73.71
21520;BME280;10921;53.614;9.882;2023-02-28T08:20:58;103047.75;;;2.92;73.01
21520;BME280;10921;53.614;9.882;2023-02-28T08:23:25;103055.06;;;3.16;72.56
21520;BME280;10921;53.614;9.882;2023-02-28T08:25:55;103059.22;;;3.25;71.68
21520;BME280;10921;53.614;9.882;2023-02-28T08:28:23;103079.59;;;3.52;69.23
21520;BME280;10921;53.614;9.882;2023-02-28T08:30:52;103073.09;;;3.65;68.51
21520;BME280;10921;53.614;9.882;2023-02-28T08:33:19;103064.81;;;3.77;67.84
21520;BME280;10921;53.614;9.882;2023-02-28T08:35:45;103078.13;;;4.04;67.36
21520;BME280;10921;53.614;9.882;2023-02-28T08:38:15;103047.28;;;4.04;67.09
21520;BME280;10921;53.614;9.882;2023-02-28T08:40:41;103084.91;;;4.42;66.38
21520;BME280;10921;53.614;9.882;2023-02-28T08:43:08;103057.59;;;4.41;65.97
21520;BME280;10921;53.614;9.882;2023-02-28T08:45:35;103082.16;;;4.73;64.55
21520;BME280;10921;53.614;9.882;2023-02-28T08:48:02;103079.94;;;4.87;64.63
21520;BME280;10921;53.614;9.882;2023-02-28T08:50:29;103077.75;;;5.00;63.93
21520;BME280;10921;53.614;9.882;2023-02-28T08:52:55;103057.38;;;5.02;61.68
21520;BME280;10921;53.614;9.882;2023-02-28T08:55:22;103077.75;;;5.24;62.01
21520;BME280;10921;53.614;9.882;2023-02-28T08:57:48;103084.19;;;5.42;60.87
21520;BME280;10921;53.614;9.882;2023-02-28T09:00:15;103087.94;;;5.61;60.98
21520;BME280;10921;53.614;9.882;2023-02-28T09:02:41;103083.75;;;5.79;59.98
21520;BME280;10921;53.614;9.882;2023-02-28T09:05:09;103091.78;;;6.01;59.99
21520;BME280;10921;53.614;9.882;2023-02-28T09:07:36;103087.53;;;6.20;59.17
21520;BME280;10921;53.614;9.882;2023-02-28T09:10:03;103097.38;;;6.40;56.95
21520;BME280;10921;53.614;9.882;2023-02-28T09:12:33;103088.13;;;6.50;56.97
21520;BME280;10921;53.614;9.882;2023-02-28T09:15:01;103084.06;;;6.63;55.67
21520;BME280;10921;53.614;9.882;2023-02-28T09:17:27;103087.88;;;6.78;55.87
21520;BME280;10921;53.614;9.882;2023-02-28T09:19:56;103096.06;;;6.94;55.97
21520;BME280;10921;53.614;9.882;2023-02-28T09:22:23;103090.06;;;7.11;53.94
21520;BME280;10921;53.614;9.882;2023-02-28T09:24:49;103076.19;;;7.24;53.06
21520;BME280;10921;53.614;9.882;2023-02-28T09:27:16;103051.44;;;7.24;53.20
21520;BME280;10921;53.614;9.882;2023-02-28T09:29:42;103075.78;;;7.54;52.31
21520;BME280;10921;53.614;9.882;2023-02-28T09:32:09;103090.97;;;7.91;51.02
21520;BME280;10921;53.614;9.882;2023-02-28T09:34:35;103086.91;;;8.21;52.07
21520;BME280;10921;53.614;9.882;2023-02-28T09:37:03;103089.44;;;8.43;49.92
21520;BME280;10921;53.614;9.882;2023-02-28T09:39:30;103091.13;;;8.63;48.36
21520;BME280;10921;53.614;9.882;2023-02-28T09:41:57;103084.53;;;8.89;48.17
21520;BME280;10921;53.614;9.882;2023-02-28T09:44:37;103091.53;;;9.08;47.13
21520;BME280;10921;53.614;9.882;2023-02-28T09:49:57;103100.91;;;9.50;46.85
21520;BME280;10921;53.614;9.882;2023-02-28T09:52:29;103108.03;;;9.67;46.31
21520;BME280;10921;53.614;9.882;2023-02-28T09:55:04;103101.13;;;9.80;46.36
21520;BME280;10921;53.614;9.882;2023-02-28T09:57:39;103104.69;;;9.96;45.89
21520;BME280;10921;53.614;9.882;2023-02-28T10:00:18;103100.31;;;10.11;46.17
21520;BME280;10921;53.614;9.882;2023-02-28T10:03:12;103100.66;;;10.38;46.02
21520;BME280;10921;53.614;9.882;2023-02-28T10:06:20;103100.47;;;10.72;47.42
21520;BME280;10921;53.614;9.882;2023-02-28T10:09:10;103100.63;;;10.85;43.37
21520;BME280;10921;53.614;9.882;2023-02-28T10:11:40;103103.25;;;11.01;42.61
21520;BME280;10921;53.614;9.882;2023-02-28T10:14:12;103094.75;;;11.24;42.37
21520;BME280;10921;53.614;9.882;2023-02-28T10:16:45;103092.72;;;11.43;41.78
21520;BME280;10921;53.614;9.882;2023-02-28T10:19:23;103079.84;;;11.64;42.48
21520;BME280;10921;53.614;9.882;2023-02-28T10:21:57;103098.72;;;11.91;40.56
21520;BME280;10921;53.614;9.882;2023-02-28T10:27:00;103059.03;;;12.12;39.69
21520;BME280;10921;53.614;9.882;2023-02-28T10:29:31;103096.31;;;12.56;39.46
21520;BME280;10921;53.614;9.882;2023-02-28T10:32:01;103085.28;;;12.75;38.13
21520;BME280;10921;53.614;9.882;2023-02-28T10:34:34;103083.78;;;12.83;37.54
21520;BME280;10921;53.614;9.882;2023-02-28T10:37:01;103058.41;;;12.89;37.79
21520;BME280;10921;53.614;9.882;2023-02-28T10:39:46;103078.88;;;13.17;37.81
21520;BME280;10921;53.614;9.882;2023-02-28T10:42:28;103082.69;;;13.27;36.12
21520;BME280;10921;53.614;9.882;2023-02-28T10:45:11;103086.53;;;13.35;36.73
21520;BME280;10921;53.614;9.882;2023-02-28T10:47:57;103081.53;;;13.44;37.16
21520;BME280;10921;53.614;9.882;2023-02-28T10:52:54;103093.72;;;13.48;36.17
21520;BME280;10921;53.614;9.882;2023-02-28T10:55:23;103077.75;;;13.46;36.17
21520;BME280;10921;53.614;9.882;2023-02-28T10:57:52;103088.28;;;13.49;35.19
21520;BME280;10921;53.614;9.882;2023-02-28T11:00:21;103095.69;;;13.58;34.68
21520;BME280;10921;53.614;9.882;2023-02-28T11:02:48;103088.59;;;13.57;34.96
21520;BME280;10921;53.614;9.882;2023-02-28T11:05:29;103089.56;;;13.69;36.50
21520;BME280;10921;53.614;9.882;2023-02-28T11:08:03;103082.03;;;13.61;35.16
21520;BME280;10921;53.614;9.882;2023-02-28T11:10:32;103100.72;;;13.76;35.64
21520;BME280;10921;53.614;9.882;2023-02-28T11:13:01;103091.56;;;14.16;40.15
21520;BME280;10921;53.614;9.882;2023-02-28T11:15:32;103084.72;;;13.99;34.95
21520;BME280;10921;53.614;9.882;2023-02-28T11:20:54;103079.75;;;14.06;34.55
21520;BME280;10921;53.614;9.882;2023-02-28T11:23:25;103080.53;;;13.95;34.25
21520;BME280;10921;53.614;9.882;2023-02-28T11:25:56;103081.19;;;13.99;35.14
21520;BME280;10921;53.614;9.882;2023-02-28T11:28:30;103043.50;;;13.88;34.61
21520;BME280;10921;53.614;9.882;2023-02-28T11:31:18;103033.06;;;13.96;35.24
21520;BME280;10921;53.614;9.882;2023-02-28T11:33:55;103038.31;;;14.10;35.61
21520;BME280;10921;53.614;9.882;2023-02-28T11:36:27;103077.25;;;14.41;34.87
21520;BME280;10921;53.614;9.882;2023-02-28T11:38:56;103072.28;;;14.48;33.06
21520;BME280;10921;53.614;9.882;2023-02-28T11:41:33;103072.56;;;14.56;32.97
21520;BME280;10921;53.614;9.882;2023-02-28T11:46:58;103060.97;;;14.79;33.62
21520;BME280;10921;53.614;9.882;2023-02-28T11:49:49;103058.44;;;14.89;33.47
21520;BME280;10921;53.614;9.882;2023-02-28T11:52:43;103065.09;;;14.96;33.04
21520;BME280;10921;53.614;9.882;2023-02-28T12:00:27;103054.38;;;14.83;32.51
21520;BME280;10921;53.614;9.882;2023-02-28T12:03:14;103044.84;;;14.79;32.32
21520;BME280;10921;53.614;9.882;2023-02-28T12:05:49;103046.44;;;14.82;32.75
21520;BME280;10921;53.614;9.882;2023-02-28T12:08:43;103044.88;;;14.90;34.42
21520;BME280;10921;53.614;9.882;2023-02-28T12:11:40;103039.63;;;14.89;34.10
21520;BME280;10921;53.614;9.882;2023-02-28T12:19:40;103031.44;;;14.90;32.13
21520;BME280;10921;53.614;9.882;2023-02-28T12:22:30;103026.63;;;15.06;33.30
21520;BME280;10921;53.614;9.882;2023-02-28T12:27:37;103003.38;;;15.05;31.63
21520;BME280;10921;53.614;9.882;2023-02-28T12:30:15;103001.81;;;15.14;31.98
21520;BME280;10921;53.614;9.882;2023-02-28T12:32:55;103006.72;;;15.20;31.27
21520;BME280;10921;53.614;9.882;2023-02-28T12:35:28;103003.91;;;15.22;31.51
21520;BME280;10921;53.614;9.882;2023-02-28T12:38:12;102975.03;;;15.12;31.42
21520;BME280;10921;53.614;9.882;2023-02-28T12:41:03;103001.59;;;15.28;31.86
21520;BME280;10921;53.614;9.882;2023-02-28T12:43:38;102986.63;;;15.13;31.15
21520;BME280;10921;53.614;9.882;2023-02-28T12:46:21;102981.66;;;15.08;31.73
21520;BME280;10921;53.614;9.882;2023-02-28T12:48:52;102971.59;;;14.99;31.13
21520;BME280;10921;53.614;9.882;2023-02-28T12:51:22;102944.44;;;14.80;31.08
21520;BME280;10921;53.614;9.882;2023-02-28T12:59:15;102971.97;;;15.06;31.33
21520;BME280;10921;53.614;9.882;2023-02-28T13:05:08;102944.22;;;15.05;32.20
21520;BME280;10921;53.614;9.882;2023-02-28T13:10:47;102956.69;;;14.95;32.34
21520;BME280;10921;53.614;9.882;2023-02-28T13:13:18;102958.66;;;14.69;31.40
21520;BME280;10921;53.614;9.882;2023-02-28T13:16:06;102959.84;;;14.54;33.44
21520;BME280;10921;53.614;9.882;2023-02-28T13:18:39;102960.78;;;14.29;32.40
21520;BME280;10921;53.614;9.882;2023-02-28T13:21:09;102945.72;;;14.16;32.09
21520;BME280;10921;53.614;9.882;2023-02-28T13:24:02;102933.16;;;14.16;33.14
21520;BME280;10921;53.614;9.882;2023-02-28T13:34:33;102937.03;;;13.76;32.36
21520;BME280;10921;53.614;9.882;2023-02-28T13:40:00;102936.56;;;13.58;33.80
21520;BME280;10921;53.614;9.882;2023-02-28T13:42:46;102938.38;;;13.57;32.87
21520;BME280;10921;53.614;9.882;2023-02-28T13:58:55;102938.50;;;13.56;34.33
21520;BME280;10921;53.614;9.882;2023-02-28T14:01:41;102938.28;;;13.46;32.77
21520;BME280;10921;53.614;9.882;2023-02-28T14:05:15;102938.38;;;13.57;33.02
21520;BME280;10921;53.614;9.882;2023-02-28T14:07:09;102940.19;;;13.69;33.57
21520;BME280;10921;53.614;9.882;2023-02-28T14:09:49;102938.47;;;13.68;32.01
21520;BME280;10921;53.614;9.882;2023-02-28T14:17:54;102948.78;;;13.49;32.59
21520;BME280;10921;53.614;9.882;2023-02-28T14:20:25;102830.88;;;12.60;32.76
21520;BME280;10921;53.614;9.882;2023-02-28T14:31:06;102944.72;;;13.18;33.74
21520;BME280;10921;53.614;9.882;2023-02-28T14:36:21;102949.75;;;13.48;32.91
21520;BME280;10921;53.614;9.882;2023-02-28T14:38:55;102940.97;;;13.59;33.37
21520;BME280;10921;53.614;9.882;2023-02-28T14:41:37;102944.56;;;13.70;32.67
21520;BME280;10921;53.614;9.882;2023-02-28T14:46:45;102890.09;;;13.45;31.79
21520;BME280;10921;53.614;9.882;2023-02-28T14:49:17;102933.09;;;13.68;32.53
21520;BME280;10921;53.614;9.882;2023-02-28T14:51:44;102936.31;;;13.73;31.99
21520;BME280;10921;53.614;9.882;2023-02-28T14:54:15;102932.84;;;13.84;32.14
21520;BME280;10921;53.614;9.882;2023-02-28T14:56:42;102938.09;;;13.86;31.64
21520;BME280;10921;53.614;9.882;2023-02-28T14:59:35;102924.38;;;13.78;32.79
21520;BME280;10921;53.614;9.882;2023-02-28T15:02:16;102936.84;;;13.66;32.31
21520;BME280;10921;53.614;9.882;2023-02-28T15:04:42;102935.28;;;13.51;32.45
21520;BME280;10921;53.614;9.882;2023-02-28T15:07:15;102903.78;;;13.29;32.69
21520;BME280;10921;53.614;9.882;2023-02-28T15:09:41;102923.28;;;13.31;32.77
21520;BME280;10921;53.614;9.882;2023-02-28T15:12:13;102916.97;;;13.19;32.90
21520;BME280;10921;53.614;9.882;2023-02-28T15:14:43;102935.31;;;13.25;33.00
21520;BME280;10921;53.614;9.882;2023-02-28T15:17:21;102926.19;;;13.15;33.63